Sultan Abdul Halim Airport Alor Satar MY
ICAO: WMKA
IATA:
Category: Medium
Scheduled Services:

Elevation: 15 ft
TransAlt. 11000 ft.

Airport Communications:
ALOR STAR APP:122.3
ALOR STAR GND:121.6
ALOR STAR TWR:122.3

WMKA Zoom In..

If you have problems with the map follow the link
https://www.worldairports.se/pages/airport.php?
ICAO=WMKA

Runways:

(A) RW 04 length 9006 ft width 148 ft
ILS 111.70 / hdg 43

(B) RW 22 length 9006 ft width 148 ft
---- / hdg 223

Location; WMKA
Day. 14 / Time. 08.00 Zulu
* QNH: 1006
* Temperature: 32° c. 89.6°f.
* Wind from: VRB° Speed 03 kn.
Dewpoint: 26° c.
Visibility: 9000 m.
Clouds: Few 1700 ft.
Clouds: Scattered 2000 ft.
Clouds: Broken 28000 ft.
Conditions: Thunderstorm.

WMKA 140800Z VRB03KT 9000 TS FEW017CB SCT020 BKN280 32/26 Q1006


Wind From VRB°
Speed 03 kn.

 
 
jpsmedia worldairports.se 2019   terms of use